createdAt,value
2018-07-27T00:00:21.223Z,25.80
2018-07-27T00:05:24.266Z,25.80
2018-07-27T00:10:27.316Z,25.80
2018-07-27T00:15:30.390Z,25.70
2018-07-27T00:20:33.404Z,25.60
2018-07-27T00:25:36.443Z,25.50
2018-07-27T00:30:39.516Z,25.60
2018-07-27T00:35:42.635Z,25.50
2018-07-27T00:40:45.774Z,25.40
2018-07-27T00:50:51.662Z,25.30
2018-07-27T00:55:54.708Z,25.20
2018-07-27T01:00:57.729Z,25.10
2018-07-27T01:06:00.838Z,25.10
2018-07-27T01:11:04.285Z,25.10
2018-07-27T01:21:10.179Z,25.00
2018-07-27T01:26:13.260Z,24.90
2018-07-27T01:31:16.271Z,24.90
2018-07-27T01:36:19.299Z,24.90
2018-07-27T01:41:22.348Z,24.90
2018-07-27T01:46:25.418Z,24.70
2018-07-27T01:51:28.519Z,24.60
2018-07-27T01:56:31.737Z,24.60
2018-07-27T02:01:34.805Z,24.40
2018-07-27T02:06:37.877Z,24.40
2018-07-27T02:11:40.918Z,24.30
2018-07-27T02:16:43.960Z,24.20
2018-07-27T02:21:47.002Z,24.20
2018-07-27T02:26:50.418Z,24.20
2018-07-27T02:31:53.524Z,24.10
2018-07-27T02:36:56.579Z,24.00
2018-07-27T02:41:59.637Z,24.00
2018-07-27T02:47:02.704Z,23.80
2018-07-27T02:52:05.754Z,23.90
2018-07-27T02:57:08.811Z,23.90
2018-07-27T03:02:11.854Z,23.90
2018-07-27T03:07:14.948Z,23.90
2018-07-27T03:12:18.033Z,23.80
2018-07-27T03:17:21.100Z,23.70
2018-07-27T03:22:24.128Z,23.70
2018-07-27T03:27:27.206Z,23.80
2018-07-27T03:32:30.277Z,23.60
2018-07-27T03:37:33.342Z,23.70
2018-07-27T03:42:36.526Z,23.70
2018-07-27T03:47:39.606Z,23.60
2018-07-27T03:52:42.650Z,23.70
2018-07-27T03:57:45.999Z,23.80
2018-07-27T04:02:49.045Z,23.80
2018-07-27T04:07:52.109Z,23.80
2018-07-27T04:12:55.162Z,23.80
2018-07-27T04:18:01.139Z,23.80
2018-07-27T04:23:04.242Z,23.90
2018-07-27T04:28:07.278Z,23.90
2018-07-27T04:33:10.399Z,24.10
2018-07-27T04:38:13.462Z,24.10
2018-07-27T04:43:16.512Z,24.10
2018-07-27T04:48:19.554Z,24.20
2018-07-27T04:53:22.586Z,24.20
2018-07-27T04:58:25.619Z,24.40
2018-07-27T05:03:28.879Z,24.40
2018-07-27T05:08:34.083Z,24.50
2018-07-27T05:13:37.218Z,24.60
2018-07-27T05:18:40.230Z,24.60
2018-07-27T05:28:46.207Z,24.90
2018-07-27T05:33:49.229Z,25.10
2018-07-27T05:38:52.260Z,25.20
2018-07-27T05:43:55.302Z,25.30
2018-07-27T05:48:58.410Z,25.40
2018-07-27T05:54:01.441Z,25.60
2018-07-27T05:59:04.466Z,25.80
2018-07-27T06:04:07.775Z,25.80
2018-07-27T06:09:11.343Z,25.90
2018-07-27T06:14:14.422Z,26.00
2018-07-27T06:19:17.450Z,26.10
2018-07-27T06:24:20.562Z,26.40
2018-07-27T06:29:23.576Z,26.40
2018-07-27T06:34:26.693Z,26.60
2018-07-27T06:39:29.861Z,26.80
2018-07-27T06:44:33.071Z,26.80
2018-07-27T06:49:36.110Z,26.80
2018-07-27T06:54:39.302Z,26.90
2018-07-27T06:59:42.407Z,27.00
2018-07-27T07:04:45.591Z,27.20
2018-07-27T07:09:48.712Z,27.40
2018-07-27T07:14:51.813Z,27.60
2018-07-27T07:19:54.851Z,27.80
2018-07-27T07:24:58.015Z,28.00
2018-07-27T07:30:01.038Z,28.10
2018-07-27T07:35:04.423Z,28.30
2018-07-27T07:40:08.226Z,28.40
2018-07-27T07:45:11.341Z,28.50
2018-07-27T07:50:14.280Z,28.60
2018-07-27T07:55:17.294Z,28.90
2018-07-27T08:00:20.311Z,28.90
2018-07-27T08:05:23.322Z,28.90
2018-07-27T08:10:26.392Z,28.90
2018-07-27T08:15:29.413Z,29.00
2018-07-27T08:20:32.885Z,29.10
2018-07-27T08:25:46.379Z,29.20
2018-07-27T08:30:49.375Z,29.30
2018-07-27T08:35:52.847Z,29.40
2018-07-27T08:40:55.876Z,29.70
2018-07-27T08:45:58.878Z,29.70
2018-07-27T08:51:01.931Z,29.90
2018-07-27T08:56:06.475Z,29.90
2018-07-27T09:01:09.588Z,30.30
2018-07-27T09:06:12.626Z,30.80
2018-07-27T09:11:15.652Z,31.30
2018-07-27T09:16:19.018Z,31.40
2018-07-27T09:21:22.034Z,30.70
2018-07-27T09:26:25.079Z,30.60
2018-07-27T09:31:28.176Z,31.30
2018-07-27T09:36:31.193Z,31.80
2018-07-27T09:41:34.321Z,32.20
2018-07-27T09:46:37.473Z,31.30
2018-07-27T09:51:40.489Z,30.80
2018-07-27T09:56:43.499Z,30.60
2018-07-27T10:01:46.523Z,30.50
2018-07-27T10:06:49.524Z,31.00
2018-07-27T10:11:52.541Z,31.40
2018-07-27T10:16:55.547Z,32.60
2018-07-27T10:21:58.972Z,33.90
2018-07-27T10:27:01.981Z,34.00
2018-07-27T10:32:05.159Z,33.80
2018-07-27T10:37:08.170Z,33.70
2018-07-27T10:42:11.171Z,33.10
2018-07-27T10:47:14.197Z,32.40
2018-07-27T10:52:17.543Z,32.20
2018-07-27T10:57:20.567Z,32.00
2018-07-27T11:02:23.668Z,31.80
2018-07-27T11:07:26.748Z,32.20
2018-07-27T11:12:29.818Z,31.70
2018-07-27T11:17:32.899Z,32.10
2018-07-27T11:22:35.966Z,32.90
2018-07-27T11:27:39.038Z,32.60
2018-07-27T11:32:42.051Z,32.50
2018-07-27T11:37:45.060Z,33.50
2018-07-27T11:42:48.096Z,33.90
2018-07-27T11:47:51.102Z,33.90
2018-07-27T11:52:54.116Z,34.60
2018-07-27T11:57:57.133Z,34.90
2018-07-27T12:03:00.179Z,35.40
2018-07-27T12:08:03.282Z,35.90
2018-07-27T12:13:06.478Z,36.20
2018-07-27T12:18:09.517Z,36.10
2018-07-27T12:23:12.654Z,35.90
2018-07-27T12:28:15.749Z,35.90
2018-07-27T12:33:18.796Z,36.40
2018-07-27T12:38:21.894Z,36.90
2018-07-27T12:43:24.934Z,36.40
2018-07-27T12:48:27.961Z,35.40
2018-07-27T12:53:31.124Z,35.80
2018-07-27T12:58:34.329Z,36.50
2018-07-27T13:03:37.347Z,36.90
2018-07-27T13:08:40.383Z,37.10
2018-07-27T13:13:43.410Z,37.10
2018-07-27T13:18:46.794Z,37.10
2018-07-27T13:23:56.995Z,37.40
2018-07-27T13:29:00.107Z,37.30
2018-07-27T13:34:17.226Z,36.60
2018-07-27T13:39:20.286Z,35.50
2018-07-27T13:44:23.414Z,35.60
2018-07-27T13:49:27.110Z,35.50
2018-07-27T13:54:31.294Z,36.00
2018-07-27T13:59:34.302Z,36.70
2018-07-27T14:04:37.351Z,37.10
2018-07-27T14:09:40.395Z,37.50
2018-07-27T14:14:43.462Z,37.50
2018-07-27T14:19:46.578Z,36.30
2018-07-27T14:24:49.618Z,36.60
2018-07-27T14:29:52.645Z,37.40
2018-07-27T14:34:55.674Z,37.60
2018-07-27T14:39:58.681Z,36.70
2018-07-27T14:45:01.794Z,35.40
2018-07-27T14:50:04.967Z,35.00
2018-07-27T14:55:08.039Z,35.80
2018-07-27T15:00:11.058Z,36.70
2018-07-27T15:10:16.994Z,35.40
2018-07-27T15:15:20.031Z,35.10
2018-07-27T15:20:23.035Z,34.70
2018-07-27T15:25:26.143Z,34.40
2018-07-27T15:30:29.218Z,35.20
2018-07-27T15:35:32.436Z,36.00
2018-07-27T15:40:35.434Z,35.30
2018-07-27T15:45:38.462Z,34.20
2018-07-27T15:50:41.516Z,33.70
2018-07-27T15:55:44.590Z,33.50
2018-07-27T16:00:47.651Z,33.10
2018-07-27T16:05:50.799Z,33.90
2018-07-27T16:10:53.842Z,34.40
2018-07-27T16:15:56.980Z,34.70
2018-07-27T16:21:00.023Z,35.00
2018-07-27T16:26:03.043Z,35.30
2018-07-27T16:31:06.084Z,35.30
2018-07-27T16:36:09.116Z,35.30
2018-07-27T16:41:12.158Z,35.10
2018-07-27T16:46:15.192Z,34.90
2018-07-27T16:51:18.207Z,33.90
2018-07-27T16:56:21.214Z,33.10
2018-07-27T17:01:24.267Z,32.70
2018-07-27T17:06:27.367Z,32.40
2018-07-27T17:11:30.412Z,32.10
2018-07-27T17:16:33.530Z,32.30
2018-07-27T17:21:36.843Z,32.80
2018-07-27T17:26:39.850Z,33.20
2018-07-27T17:31:42.899Z,33.50
2018-07-27T17:36:45.934Z,33.60
2018-07-27T17:41:48.965Z,33.40
2018-07-27T17:52:01.448Z,32.80
2018-07-27T17:57:04.530Z,32.70
2018-07-27T18:02:07.575Z,32.50
2018-07-27T18:07:10.742Z,32.20
2018-07-27T18:12:14.066Z,31.90
2018-07-27T18:17:17.139Z,31.60
2018-07-27T18:22:20.222Z,31.50
2018-07-27T18:27:23.251Z,31.30
2018-07-27T18:32:26.392Z,31.10
2018-07-27T18:37:29.374Z,30.90
2018-07-27T18:42:32.443Z,30.80
2018-07-27T18:47:35.491Z,30.60
2018-07-27T18:52:38.963Z,30.50
2018-07-27T18:57:41.992Z,30.50
2018-07-27T19:02:45.015Z,30.40
2018-07-27T19:07:48.055Z,30.20
2018-07-27T19:12:51.078Z,30.10
2018-07-27T19:17:54.123Z,30.00
2018-07-27T19:22:57.386Z,30.00
2018-07-27T19:28:00.407Z,29.90
2018-07-27T19:33:03.462Z,29.80
2018-07-27T19:38:06.486Z,29.70
2018-07-27T19:43:09.606Z,29.60
2018-07-27T19:48:12.674Z,29.40
2018-07-27T19:53:15.687Z,29.20
2018-07-27T19:58:18.707Z,29.10
2018-07-27T20:03:21.738Z,29.10
2018-07-27T20:08:25.256Z,29.00
2018-07-27T20:13:28.334Z,28.70
2018-07-27T20:18:31.412Z,28.50
2018-07-27T20:23:34.470Z,28.40
2018-07-27T20:28:37.547Z,28.40
2018-07-27T20:33:40.643Z,28.30
2018-07-27T20:38:43.775Z,28.20
2018-07-27T20:43:46.853Z,28.20
2018-07-27T20:48:49.883Z,28.20
2018-07-27T20:53:52.978Z,28.20
2018-07-27T20:58:56.062Z,28.10
2018-07-27T21:03:59.404Z,28.00
2018-07-27T21:09:02.687Z,27.90
2018-07-27T21:14:06.126Z,27.80
2018-07-27T21:19:09.129Z,27.80
2018-07-27T21:29:15.018Z,27.60
2018-07-27T21:34:18.119Z,27.50
2018-07-27T21:39:21.198Z,27.40
2018-07-27T21:44:24.335Z,27.30
2018-07-27T21:49:27.410Z,27.20
2018-07-27T21:54:30.443Z,27.10
2018-07-27T21:59:33.530Z,27.00
2018-07-27T22:04:36.603Z,27.00
2018-07-27T22:09:39.630Z,26.90
2018-07-27T22:14:43.449Z,26.90
2018-07-27T22:19:46.471Z,26.90
2018-07-27T22:24:49.540Z,26.90
2018-07-27T22:29:52.671Z,26.80
2018-07-27T22:34:55.705Z,26.80
2018-07-27T22:39:58.759Z,26.70
2018-07-27T22:45:01.937Z,26.40
2018-07-27T22:50:05.777Z,26.30
2018-07-27T22:55:13.151Z,26.30
2018-07-27T23:00:16.369Z,26.20
2018-07-27T23:05:19.376Z,26.20
2018-07-27T23:10:22.439Z,26.10
2018-07-27T23:15:25.501Z,26.10
2018-07-27T23:20:28.546Z,26.00
2018-07-27T23:25:31.563Z,26.00
2018-07-27T23:35:37.444Z,25.80
2018-07-27T23:40:40.494Z,25.70
2018-07-27T23:45:43.534Z,25.70
2018-07-27T23:50:46.587Z,25.70
2018-07-27T23:55:49.591Z,25.50
